sensor_id;sensor_type;location;lat;lon;timestamp;pressure;altitude;pressure_sealevel;temperature;humidity
13705;BME280;6924;52.122;9.952;2023-08-08T00:00:40;100225.03;;;13.16;97.49
13705;BME280;6924;52.122;9.952;2023-08-08T00:03:07;100229.19;;;13.19;97.80
13705;BME280;6924;52.122;9.952;2023-08-08T00:05:34;100233.03;;;13.23;98.78
13705;BME280;6924;52.122;9.952;2023-08-08T00:08:02;100222.00;;;13.21;98.82
13705;BME280;6924;52.122;9.952;2023-08-08T00:10:28;100222.50;;;13.23;99.44
13705;BME280;6924;52.122;9.952;2023-08-08T00:12:55;100223.16;;;13.20;99.07
13705;BME280;6924;52.122;9.952;2023-08-08T00:15:21;100222.16;;;13.25;99.71
13705;BME280;6924;52.122;9.952;2023-08-08T00:17:48;100222.19;;;13.16;100.00
13705;BME280;6924;52.122;9.952;2023-08-08T00:20:15;100218.66;;;13.19;100.00
13705;BME280;6924;52.122;9.952;2023-08-08T00:22:41;100222.19;;;13.16;100.00
13705;BME280;6924;52.122;9.952;2023-08-08T00:25:09;100217.19;;;13.13;100.00
13705;BME280;6924;52.122;9.952;2023-08-08T00:27:36;100214.22;;;13.10;100.00
13705;BME280;6924;52.122;9.952;2023-08-08T00:30:08;100210.72;;;13.04;100.00
13705;BME280;6924;52.122;9.952;2023-08-08T00:32:35;100203.38;;;13.03;100.00
13705;BME280;6924;52.122;9.952;2023-08-08T00:35:01;100199.53;;;13.08;100.00
13705;BME280;6924;52.122;9.952;2023-08-08T00:37:28;100193.47;;;13.09;100.00
13705;BME280;6924;52.122;9.952;2023-08-08T00:39:54;100189.97;;;13.12;100.00
13705;BME280;6924;52.122;9.952;2023-08-08T00:42:22;100191.81;;;13.08;100.00
13705;BME280;6924;52.122;9.952;2023-08-08T00:44:48;100191.34;;;13.06;100.00
13705;BME280;6924;52.122;9.952;2023-08-08T00:47:15;100184.31;;;13.12;100.00
13705;BME280;6924;52.122;9.952;2023-08-08T00:49:42;100184.97;;;13.09;100.00
13705;BME280;6924;52.122;9.952;2023-08-08T00:52:09;100177.97;;;13.07;100.00
13705;BME280;6924;52.122;9.952;2023-08-08T00:54:36;100177.13;;;13.06;100.00
13705;BME280;6924;52.122;9.952;2023-08-08T00:57:03;100186.81;;;13.05;100.00
13705;BME280;6924;52.122;9.952;2023-08-08T00:59:31;100181.88;;;12.93;100.00
13705;BME280;6924;52.122;9.952;2023-08-08T01:01:58;100178.00;;;12.98;100.00
13705;BME280;6924;52.122;9.952;2023-08-08T01:04:26;100173.59;;;13.09;100.00
13705;BME280;6924;52.122;9.952;2023-08-08T01:06:58;100171.94;;;13.08;100.00
13705;BME280;6924;52.122;9.952;2023-08-08T01:09:32;100168.91;;;13.13;100.00
13705;BME280;6924;52.122;9.952;2023-08-08T01:12:00;100171.91;;;13.17;100.00
13705;BME280;6924;52.122;9.952;2023-08-08T01:14:30;100168.56;;;13.15;100.00
13705;BME280;6924;52.122;9.952;2023-08-08T01:16:59;100167.06;;;13.17;100.00
13705;BME280;6924;52.122;9.952;2023-08-08T01:19:28;100161.38;;;13.17;100.00
13705;BME280;6924;52.122;9.952;2023-08-08T01:21:58;100156.34;;;13.23;100.00
13705;BME280;6924;52.122;9.952;2023-08-08T01:24:26;100157.72;;;13.17;100.00
13705;BME280;6924;52.122;9.952;2023-08-08T01:26:55;100158.53;;;13.17;100.00
13705;BME280;6924;52.122;9.952;2023-08-08T01:29:22;100149.31;;;13.20;100.00
13705;BME280;6924;52.122;9.952;2023-08-08T01:31:48;100150.84;;;13.18;100.00
13705;BME280;6924;52.122;9.952;2023-08-08T01:34:15;100152.66;;;13.22;100.00
13705;BME280;6924;52.122;9.952;2023-08-08T01:36:46;100154.66;;;13.22;100.00
13705;BME280;6924;52.122;9.952;2023-08-08T01:39:17;100153.16;;;13.24;100.00
13705;BME280;6924;52.122;9.952;2023-08-08T01:41:48;100152.66;;;13.22;100.00
13705;BME280;6924;52.122;9.952;2023-08-08T01:44:16;100149.00;;;13.22;100.00
13705;BME280;6924;52.122;9.952;2023-08-08T01:46:45;100155.97;;;13.24;100.00
13705;BME280;6924;52.122;9.952;2023-08-08T01:49:11;100152.81;;;13.26;100.00
13705;BME280;6924;52.122;9.952;2023-08-08T01:51:38;100153.69;;;13.18;100.00
13705;BME280;6924;52.122;9.952;2023-08-08T01:54:04;100150.66;;;13.23;100.00
13705;BME280;6924;52.122;9.952;2023-08-08T01:56:31;100148.31;;;13.25;100.00
13705;BME280;6924;52.122;9.952;2023-08-08T01:58:59;100147.66;;;13.28;100.00
13705;BME280;6924;52.122;9.952;2023-08-08T02:01:25;100144.81;;;13.28;100.00
13705;BME280;6924;52.122;9.952;2023-08-08T02:03:52;100140.94;;;13.33;100.00
13705;BME280;6924;52.122;9.952;2023-08-08T02:06:18;100132.75;;;13.31;100.00
13705;BME280;6924;52.122;9.952;2023-08-08T02:08:45;100129.09;;;13.31;100.00
13705;BME280;6924;52.122;9.952;2023-08-08T02:11:12;100131.59;;;13.32;100.00
13705;BME280;6924;52.122;9.952;2023-08-08T02:13:38;100130.06;;;13.35;100.00
13705;BME280;6924;52.122;9.952;2023-08-08T02:16:06;100121.41;;;13.22;100.00
13705;BME280;6924;52.122;9.952;2023-08-08T02:18:32;100115.06;;;13.26;100.00
13705;BME280;6924;52.122;9.952;2023-08-08T02:20:59;100119.44;;;13.23;100.00
13705;BME280;6924;52.122;9.952;2023-08-08T02:23:26;100120.94;;;13.20;100.00
13705;BME280;6924;52.122;9.952;2023-08-08T02:25:52;100125.44;;;13.21;100.00
13705;BME280;6924;52.122;9.952;2023-08-08T02:28:19;100114.78;;;13.18;100.00
13705;BME280;6924;52.122;9.952;2023-08-08T02:30:45;100107.91;;;13.19;100.00
13705;BME280;6924;52.122;9.952;2023-08-08T02:33:13;100104.25;;;13.19;100.00
13705;BME280;6924;52.122;9.952;2023-08-08T02:35:40;100099.13;;;13.12;100.00
13705;BME280;6924;52.122;9.952;2023-08-08T02:38:06;100097.94;;;13.13;100.00
13705;BME280;6924;52.122;9.952;2023-08-08T02:40:33;100091.09;;;13.14;100.00
13705;BME280;6924;52.122;9.952;2023-08-08T02:42:59;100095.09;;;13.13;100.00
13705;BME280;6924;52.122;9.952;2023-08-08T02:45:26;100103.97;;;13.12;100.00
13705;BME280;6924;52.122;9.952;2023-08-08T02:47:52;100101.13;;;13.12;100.00
13705;BME280;6924;52.122;9.952;2023-08-08T02:50:20;100104.09;;;13.15;100.00
13705;BME280;6924;52.122;9.952;2023-08-08T02:52:47;100098.19;;;13.20;100.00
13705;BME280;6924;52.122;9.952;2023-08-08T02:55:13;100104.91;;;13.16;100.00
13705;BME280;6924;52.122;9.952;2023-08-08T02:57:40;100100.91;;;13.17;100.00
13705;BME280;6924;52.122;9.952;2023-08-08T03:00:07;100094.81;;;13.27;100.00
13705;BME280;6924;52.122;9.952;2023-08-08T03:02:34;100092.34;;;13.26;100.00
13705;BME280;6924;52.122;9.952;2023-08-08T03:05:01;100089.13;;;13.27;100.00
13705;BME280;6924;52.122;9.952;2023-08-08T03:07:29;100082.34;;;13.28;100.00
13705;BME280;6924;52.122;9.952;2023-08-08T03:09:55;100090.63;;;13.33;100.00
13705;BME280;6924;52.122;9.952;2023-08-08T03:12:22;100082.13;;;13.33;100.00
13705;BME280;6924;52.122;9.952;2023-08-08T03:14:48;100087.47;;;13.35;100.00
13705;BME280;6924;52.122;9.952;2023-08-08T03:17:15;100092.31;;;13.34;100.00
13705;BME280;6924;52.122;9.952;2023-08-08T03:19:41;100088.56;;;13.42;100.00
13705;BME280;6924;52.122;9.952;2023-08-08T03:22:07;100090.03;;;13.49;100.00
13705;BME280;6924;52.122;9.952;2023-08-08T03:24:35;100093.69;;;13.49;100.00
13705;BME280;6924;52.122;9.952;2023-08-08T03:27:02;100095.16;;;13.55;100.00
13705;BME280;6924;52.122;9.952;2023-08-08T03:29:29;100088.78;;;13.58;100.00
13705;BME280;6924;52.122;9.952;2023-08-08T03:31:55;100083.44;;;13.57;100.00
13705;BME280;6924;52.122;9.952;2023-08-08T03:34:22;100077.97;;;13.52;100.00
13705;BME280;6924;52.122;9.952;2023-08-08T03:36:48;100067.78;;;13.51;100.00
13705;BME280;6924;52.122;9.952;2023-08-08T03:39:15;100074.44;;;13.55;100.00
13705;BME280;6924;52.122;9.952;2023-08-08T03:41:42;100081.16;;;13.50;100.00
13705;BME280;6924;52.122;9.952;2023-08-08T03:44:09;100080.94;;;13.55;100.00
13705;BME280;6924;52.122;9.952;2023-08-08T03:46:35;100076.44;;;13.54;100.00
13705;BME280;6924;52.122;9.952;2023-08-08T03:49:02;100080.81;;;13.52;100.00
13705;BME280;6924;52.122;9.952;2023-08-08T03:51:28;100079.06;;;13.59;100.00
13705;BME280;6924;52.122;9.952;2023-08-08T03:53:55;100074.22;;;13.60;100.00
13705;BME280;6924;52.122;9.952;2023-08-08T03:56:22;100076.88;;;13.65;100.00
13705;BME280;6924;52.122;9.952;2023-08-08T03:58:50;100072.22;;;13.60;100.00
13705;BME280;6924;52.122;9.952;2023-08-08T04:01:16;100063.47;;;13.66;100.00
13705;BME280;6924;52.122;9.952;2023-08-08T04:03:43;100051.47;;;13.60;100.00
13705;BME280;6924;52.122;9.952;2023-08-08T04:06:09;100063.81;;;13.64;100.00
13705;BME280;6924;52.122;9.952;2023-08-08T04:08:36;100062.66;;;13.65;100.00
13705;BME280;6924;52.122;9.952;2023-08-08T04:11:02;100059.66;;;13.61;100.00
13705;BME280;6924;52.122;9.952;2023-08-08T04:13:29;100066.66;;;13.64;100.00
13705;BME280;6924;52.122;9.952;2023-08-08T04:15:57;100063.81;;;13.64;100.00
13705;BME280;6924;52.122;9.952;2023-08-08T04:18:23;100072.22;;;13.60;100.00
13705;BME280;6924;52.122;9.952;2023-08-08T04:20:50;100070.78;;;13.54;100.00
13705;BME280;6924;52.122;9.952;2023-08-08T04:23:16;100072.09;;;13.57;100.00
13705;BME280;6924;52.122;9.952;2023-08-08T04:25:43;100062.84;;;13.60;100.00
13705;BME280;6924;52.122;9.952;2023-08-08T04:28:09;100065.00;;;13.63;100.00
13705;BME280;6924;52.122;9.952;2023-08-08T04:30:36;100063.47;;;13.66;100.00
13705;BME280;6924;52.122;9.952;2023-08-08T04:33:04;100064.78;;;13.68;100.00
13705;BME280;6924;52.122;9.952;2023-08-08T04:35:31;100061.63;;;13.70;100.00
13705;BME280;6924;52.122;9.952;2023-08-08T04:37:57;100060.97;;;13.64;100.00
13705;BME280;6924;52.122;9.952;2023-08-08T04:40:24;100053.97;;;13.61;100.00
13705;BME280;6924;52.122;9.952;2023-08-08T04:42:51;100070.00;;;13.66;100.00
13705;BME280;6924;52.122;9.952;2023-08-08T04:45:17;100055.19;;;13.60;100.00
13705;BME280;6924;52.122;9.952;2023-08-08T04:47:44;100052.13;;;13.66;100.00
13705;BME280;6924;52.122;9.952;2023-08-08T04:50:12;100051.16;;;13.61;100.00
13705;BME280;6924;52.122;9.952;2023-08-08T04:52:38;100051.97;;;13.62;100.00
13705;BME280;6924;52.122;9.952;2023-08-08T04:55:05;100049.84;;;13.59;100.00
13705;BME280;6924;52.122;9.952;2023-08-08T04:57:32;100052.69;;;13.59;100.00
13705;BME280;6924;52.122;9.952;2023-08-08T04:59:59;100045.19;;;13.54;100.00
13705;BME280;6924;52.122;9.952;2023-08-08T05:02:28;100046.50;;;13.57;100.00
13705;BME280;6924;52.122;9.952;2023-08-08T05:04:54;100049.00;;;13.58;100.00
13705;BME280;6924;52.122;9.952;2023-08-08T05:07:22;100044.16;;;13.59;100.00
13705;BME280;6924;52.122;9.952;2023-08-08T05:09:49;100055.28;;;13.64;100.00
13705;BME280;6924;52.122;9.952;2023-08-08T05:12:15;100049.34;;;13.57;100.00
13705;BME280;6924;52.122;9.952;2023-08-08T05:14:41;100044.97;;;13.59;100.00
13705;BME280;6924;52.122;9.952;2023-08-08T05:17:08;100048.06;;;13.67;100.00
13705;BME280;6924;52.122;9.952;2023-08-08T05:19:34;100040.75;;;13.66;100.00
13705;BME280;6924;52.122;9.952;2023-08-08T05:22:01;100047.59;;;13.64;100.00
13705;BME280;6924;52.122;9.952;2023-08-08T05:24:29;100038.88;;;13.70;100.00
13705;BME280;6924;52.122;9.952;2023-08-08T05:26:55;100031.31;;;13.74;100.00
13705;BME280;6924;52.122;9.952;2023-08-08T05:29:22;100035.31;;;13.73;100.00
13705;BME280;6924;52.122;9.952;2023-08-08T05:31:49;100027.28;;;13.75;100.00
13705;BME280;6924;52.122;9.952;2023-08-08T05:34:15;100033.31;;;13.73;100.00
13705;BME280;6924;52.122;9.952;2023-08-08T05:36:42;100021.59;;;13.75;100.00
13705;BME280;6924;52.122;9.952;2023-08-08T05:39:09;100018.84;;;13.66;100.00
13705;BME280;6924;52.122;9.952;2023-08-08T05:41:37;100021.13;;;13.73;100.00
13705;BME280;6924;52.122;9.952;2023-08-08T05:44:03;100022.91;;;13.77;100.00
13705;BME280;6924;52.122;9.952;2023-08-08T05:46:30;100023.94;;;13.73;100.00
13705;BME280;6924;52.122;9.952;2023-08-08T05:48:56;100028.00;;;13.72;100.00
13705;BME280;6924;52.122;9.952;2023-08-08T05:51:23;100033.69;;;13.84;100.00
13705;BME280;6924;52.122;9.952;2023-08-08T05:53:49;100033.69;;;13.84;100.00
13705;BME280;6924;52.122;9.952;2023-08-08T05:56:16;100026.63;;;13.90;100.00
13705;BME280;6924;52.122;9.952;2023-08-08T05:58:44;100025.56;;;13.95;100.00
13705;BME280;6924;52.122;9.952;2023-08-08T06:01:10;100024.75;;;13.94;100.00
13705;BME280;6924;52.122;9.952;2023-08-08T06:03:37;100026.06;;;13.97;100.00
13705;BME280;6924;52.122;9.952;2023-08-08T06:06:03;100025.00;;;14.01;100.00
13705;BME280;6924;52.122;9.952;2023-08-08T06:08:31;100032.59;;;14.10;100.00
13705;BME280;6924;52.122;9.952;2023-08-08T06:10:58;100028.84;;;14.18;100.00
13705;BME280;6924;52.122;9.952;2023-08-08T06:13:24;100034.63;;;14.21;100.00
13705;BME280;6924;52.122;9.952;2023-08-08T06:15:52;100031.09;;;14.24;100.00
13705;BME280;6924;52.122;9.952;2023-08-08T06:18:18;100032.03;;;14.29;100.00
13705;BME280;6924;52.122;9.952;2023-08-08T06:20:45;100027.09;;;14.38;100.00
13705;BME280;6924;52.122;9.952;2023-08-08T06:23:11;100038.56;;;14.41;100.00
13705;BME280;6924;52.122;9.952;2023-08-08T06:25:38;100042.16;;;14.38;100.00
13705;BME280;6924;52.122;9.952;2023-08-08T06:28:05;100034.56;;;14.42;100.00
13705;BME280;6924;52.122;9.952;2023-08-08T06:30:32;100039.44;;;14.42;100.00
13705;BME280;6924;52.122;9.952;2023-08-08T06:33:00;100043.69;;;14.36;100.00
13705;BME280;6924;52.122;9.952;2023-08-08T06:35:27;100045.13;;;14.42;100.00
13705;BME280;6924;52.122;9.952;2023-08-08T06:37:53;100039.19;;;14.47;100.00
13705;BME280;6924;52.122;9.952;2023-08-08T06:40:19;100034.59;;;14.55;100.00
13705;BME280;6924;52.122;9.952;2023-08-08T06:42:46;100033.97;;;14.49;100.00
13705;BME280;6924;52.122;9.952;2023-08-08T06:45:13;100048.41;;;14.44;100.00
13705;BME280;6924;52.122;9.952;2023-08-08T06:47:39;100039.88;;;14.44;100.00
13705;BME280;6924;52.122;9.952;2023-08-08T06:50:08;100044.63;;;14.52;100.00
13705;BME280;6924;52.122;9.952;2023-08-08T06:52:35;100040.34;;;14.46;100.00
13705;BME280;6924;52.122;9.952;2023-08-08T06:55:02;100047.59;;;14.43;100.00
13705;BME280;6924;52.122;9.952;2023-08-08T06:57:32;100040.28;;;14.55;100.00
13705;BME280;6924;52.122;9.952;2023-08-08T06:59:59;100051.78;;;14.58;100.00
13705;BME280;6924;52.122;9.952;2023-08-08T07:02:25;100044.22;;;14.62;100.00
13705;BME280;6924;52.122;9.952;2023-08-08T07:04:52;100036.25;;;14.68;100.00
13705;BME280;6924;52.122;9.952;2023-08-08T07:07:20;100034.84;;;14.74;100.00
13705;BME280;6924;52.122;9.952;2023-08-08T07:09:47;100035.78;;;14.78;100.00
13705;BME280;6924;52.122;9.952;2023-08-08T07:12:14;100041.97;;;14.93;100.00
13705;BME280;6924;52.122;9.952;2023-08-08T07:14:40;100042.75;;;15.05;100.00
13705;BME280;6924;52.122;9.952;2023-08-08T07:17:07;100040.75;;;15.06;100.00
13705;BME280;6924;52.122;9.952;2023-08-08T07:19:35;100038.13;;;15.13;100.00
13705;BME280;6924;52.122;9.952;2023-08-08T07:22:03;100027.69;;;15.17;100.00
13705;BME280;6924;52.122;9.952;2023-08-08T07:24:31;100026.56;;;15.34;100.00
13705;BME280;6924;52.122;9.952;2023-08-08T07:26:58;100032.84;;;15.40;100.00
13705;BME280;6924;52.122;9.952;2023-08-08T07:29:25;100034.03;;;15.39;99.37
13705;BME280;6924;52.122;9.952;2023-08-08T07:31:52;100028.09;;;15.44;100.00
13705;BME280;6924;52.122;9.952;2023-08-08T07:34:19;100035.91;;;15.47;100.00
13705;BME280;6924;52.122;9.952;2023-08-08T07:36:46;100021.97;;;15.58;100.00
13705;BME280;6924;52.122;9.952;2023-08-08T07:39:13;100025.19;;;15.56;98.49
13705;BME280;6924;52.122;9.952;2023-08-08T07:41:41;100025.03;;;15.65;99.09
13705;BME280;6924;52.122;9.952;2023-08-08T07:44:08;100032.50;;;15.69;98.99
13705;BME280;6924;52.122;9.952;2023-08-08T07:46:34;100025.03;;;15.65;98.63
13705;BME280;6924;52.122;9.952;2023-08-08T07:49:01;100026.13;;;15.73;96.09
13705;BME280;6924;52.122;9.952;2023-08-08T07:51:28;100011.94;;;15.76;98.18
13705;BME280;6924;52.122;9.952;2023-08-08T07:53:55;100025.97;;;15.69;95.70
13705;BME280;6924;52.122;9.952;2023-08-08T07:56:22;100024.66;;;15.79;96.55
13705;BME280;6924;52.122;9.952;2023-08-08T07:58:49;100023.94;;;15.82;94.20
13705;BME280;6924;52.122;9.952;2023-08-08T08:01:16;100024.41;;;15.84;93.64
13705;BME280;6924;52.122;9.952;2023-08-08T08:03:43;100019.63;;;15.88;95.88
13705;BME280;6924;52.122;9.952;2023-08-08T08:06:10;100023.59;;;15.99;95.06
13705;BME280;6924;52.122;9.952;2023-08-08T08:08:37;100015.50;;;16.01;92.96
13705;BME280;6924;52.122;9.952;2023-08-08T08:11:04;100008.72;;;16.06;94.91
13705;BME280;6924;52.122;9.952;2023-08-08T08:13:30;100016.44;;;16.05;91.13
13705;BME280;6924;52.122;9.952;2023-08-08T08:15:58;100019.78;;;16.07;93.42
13705;BME280;6924;52.122;9.952;2023-08-08T08:18:25;100017.38;;;16.09;93.21
13705;BME280;6924;52.122;9.952;2023-08-08T08:20:51;100021.41;;;16.08;90.84
13705;BME280;6924;52.122;9.952;2023-08-08T08:23:18;100010.06;;;15.96;89.06
13705;BME280;6924;52.122;9.952;2023-08-08T08:25:44;100007.22;;;15.96;89.10
13705;BME280;6924;52.122;9.952;2023-08-08T08:28:11;100005.50;;;16.07;91.64
13705;BME280;6924;52.122;9.952;2023-08-08T08:30:37;100009.09;;;16.20;89.98
13705;BME280;6924;52.122;9.952;2023-08-08T08:33:05;100004.59;;;16.19;89.84
13705;BME280;6924;52.122;9.952;2023-08-08T08:35:33;99996.13;;;16.23;88.85
13705;BME280;6924;52.122;9.952;2023-08-08T08:37:59;100006.53;;;16.31;88.76
13705;BME280;6924;52.122;9.952;2023-08-08T08:40:26;99984.31;;;16.40;88.62
13705;BME280;6924;52.122;9.952;2023-08-08T08:42:54;99979.81;;;16.55;85.80
13705;BME280;6924;52.122;9.952;2023-08-08T08:45:21;99985.81;;;16.50;87.13
13705;BME280;6924;52.122;9.952;2023-08-08T08:47:49;99980.63;;;16.56;86.57
13705;BME280;6924;52.122;9.952;2023-08-08T08:50:21;99982.78;;;16.59;85.69
13705;BME280;6924;52.122;9.952;2023-08-08T08:52:49;99975.75;;;16.40;82.45
13705;BME280;6924;52.122;9.952;2023-08-08T08:55:16;99973.94;;;16.32;83.00
13705;BME280;6924;52.122;9.952;2023-08-08T08:57:43;99983.91;;;16.38;84.69
13705;BME280;6924;52.122;9.952;2023-08-08T09:00:12;99974.13;;;16.39;82.82
13705;BME280;6924;52.122;9.952;2023-08-08T09:02:39;99978.53;;;16.52;85.30
13705;BME280;6924;52.122;9.952;2023-08-08T09:05:06;99970.88;;;16.57;84.35
13705;BME280;6924;52.122;9.952;2023-08-08T09:07:35;99984.34;;;16.56;84.28
13705;BME280;6924;52.122;9.952;2023-08-08T09:10:02;99971.34;;;16.59;84.35
13705;BME280;6924;52.122;9.952;2023-08-08T09:12:30;99981.94;;;16.58;83.17
13705;BME280;6924;52.122;9.952;2023-08-08T09:14:58;99979.00;;;16.55;81.15
13705;BME280;6924;52.122;9.952;2023-08-08T09:17:25;99976.88;;;16.51;81.88
13705;BME280;6924;52.122;9.952;2023-08-08T09:19:53;99970.91;;;16.41;83.56
13705;BME280;6924;52.122;9.952;2023-08-08T09:22:19;99983.78;;;16.35;83.10
13705;BME280;6924;52.122;9.952;2023-08-08T09:24:47;99978.63;;;16.24;83.71
13705;BME280;6924;52.122;9.952;2023-08-08T09:27:14;99977.16;;;16.30;85.44
13705;BME280;6924;52.122;9.952;2023-08-08T09:29:41;99974.88;;;16.36;85.76
13705;BME280;6924;52.122;9.952;2023-08-08T09:32:08;99974.41;;;16.50;87.50
13705;BME280;6924;52.122;9.952;2023-08-08T09:34:35;99955.69;;;16.52;83.66
13705;BME280;6924;52.122;9.952;2023-08-08T09:37:02;99974.94;;;16.56;82.57
13705;BME280;6924;52.122;9.952;2023-08-08T09:39:30;99961.56;;;16.60;82.58
13705;BME280;6924;52.122;9.952;2023-08-08T09:41:58;99972.16;;;16.59;86.54
13705;BME280;6924;52.122;9.952;2023-08-08T09:44:26;99976.69;;;16.60;85.35
13705;BME280;6924;52.122;9.952;2023-08-08T09:46:55;99986.81;;;16.58;86.40
13705;BME280;6924;52.122;9.952;2023-08-08T09:49:22;100000.63;;;16.56;90.50
13705;BME280;6924;52.122;9.952;2023-08-08T09:51:49;99987.09;;;16.37;94.67
13705;BME280;6924;52.122;9.952;2023-08-08T09:54:16;99983.31;;;16.32;96.33
13705;BME280;6924;52.122;9.952;2023-08-08T09:56:43;99976.34;;;16.14;97.35
13705;BME280;6924;52.122;9.952;2023-08-08T09:59:11;99988.56;;;16.15;100.00
13705;BME280;6924;52.122;9.952;2023-08-08T10:01:39;99989.09;;;16.20;100.00
13705;BME280;6924;52.122;9.952;2023-08-08T10:04:06;99987.19;;;16.08;100.00
13705;BME280;6924;52.122;9.952;2023-08-08T10:06:33;99979.91;;;16.11;100.00
13705;BME280;6924;52.122;9.952;2023-08-08T10:09:00;99972.81;;;16.05;100.00
13705;BME280;6924;52.122;9.952;2023-08-08T10:11:30;99975.84;;;15.96;100.00
13705;BME280;6924;52.122;9.952;2023-08-08T10:13:57;99979.56;;;16.13;100.00
13705;BME280;6924;52.122;9.952;2023-08-08T10:16:26;99981.94;;;16.10;99.88
13705;BME280;6924;52.122;9.952;2023-08-08T10:18:58;99985.06;;;16.05;95.72
13705;BME280;6924;52.122;9.952;2023-08-08T10:21:25;99983.03;;;16.06;98.03
13705;BME280;6924;52.122;9.952;2023-08-08T10:24:01;99988.28;;;16.04;99.25
13705;BME280;6924;52.122;9.952;2023-08-08T10:26:28;99987.94;;;16.05;98.86
13705;BME280;6924;52.122;9.952;2023-08-08T10:28:56;99984.63;;;16.19;100.00
13705;BME280;6924;52.122;9.952;2023-08-08T10:31:23;99975.97;;;16.31;100.00
13705;BME280;6924;52.122;9.952;2023-08-08T10:34:01;99977.06;;;16.59;100.00
13705;BME280;6924;52.122;9.952;2023-08-08T10:36:43;99972.13;;;16.91;100.00
13705;BME280;6924;52.122;9.952;2023-08-08T10:39:11;99983.25;;;17.12;93.48
13705;BME280;6924;52.122;9.952;2023-08-08T10:41:45;99969.03;;;17.35;92.07
13705;BME280;6924;52.122;9.952;2023-08-08T10:44:12;99967.91;;;17.59;90.97
13705;BME280;6924;52.122;9.952;2023-08-08T10:46:41;99967.88;;;17.79;86.14
13705;BME280;6924;52.122;9.952;2023-08-08T10:49:11;99967.06;;;17.98;86.18
13705;BME280;6924;52.122;9.952;2023-08-08T10:51:40;99968.59;;;17.91;82.80
13705;BME280;6924;52.122;9.952;2023-08-08T10:54:12;99980.56;;;17.97;80.64
13705;BME280;6924;52.122;9.952;2023-08-08T10:56:39;99971.34;;;18.07;81.55
13705;BME280;6924;52.122;9.952;2023-08-08T10:59:14;99960.16;;;18.22;79.18
13705;BME280;6924;52.122;9.952;2023-08-08T11:01:42;99975.53;;;18.13;76.64
13705;BME280;6924;52.122;9.952;2023-08-08T11:04:13;99964.16;;;18.17;76.74
13705;BME280;6924;52.122;9.952;2023-08-08T11:06:40;99976.69;;;18.32;76.47
13705;BME280;6924;52.122;9.952;2023-08-08T11:09:06;99973.38;;;18.53;77.44
13705;BME280;6924;52.122;9.952;2023-08-08T11:11:36;99955.47;;;18.59;78.90
13705;BME280;6924;52.122;9.952;2023-08-08T11:14:09;99959.97;;;18.61;73.12
13705;BME280;6924;52.122;9.952;2023-08-08T11:16:36;99961.91;;;18.53;74.47
13705;BME280;6924;52.122;9.952;2023-08-08T11:19:03;99966.03;;;18.55;76.01
13705;BME280;6924;52.122;9.952;2023-08-08T11:21:34;99971.16;;;18.43;74.48
13705;BME280;6924;52.122;9.952;2023-08-08T11:24:01;99976.22;;;18.30;75.77
13705;BME280;6924;52.122;9.952;2023-08-08T11:26:28;99960.09;;;18.18;73.12
13705;BME280;6924;52.122;9.952;2023-08-08T11:28:57;99959.13;;;18.33;77.21
13705;BME280;6924;52.122;9.952;2023-08-08T11:31:24;99942.34;;;18.58;78.85
13705;BME280;6924;52.122;9.952;2023-08-08T11:33:50;99952.28;;;18.65;74.72
13705;BME280;6924;52.122;9.952;2023-08-08T11:36:19;99950.88;;;18.78;73.55
13705;BME280;6924;52.122;9.952;2023-08-08T11:38:47;99958.38;;;18.86;75.34
13705;BME280;6924;52.122;9.952;2023-08-08T11:41:14;99948.09;;;18.82;68.78
13705;BME280;6924;52.122;9.952;2023-08-08T11:43:41;99940.38;;;18.86;69.36
13705;BME280;6924;52.122;9.952;2023-08-08T11:46:09;99937.50;;;18.86;70.38
13705;BME280;6924;52.122;9.952;2023-08-08T11:48:37;99933.47;;;18.90;72.26
13705;BME280;6924;52.122;9.952;2023-08-08T11:51:04;99940.19;;;19.02;72.25
13705;BME280;6924;52.122;9.952;2023-08-08T11:53:30;99938.19;;;19.06;69.92
13705;BME280;6924;52.122;9.952;2023-08-08T11:55:59;99929.34;;;19.18;73.77
13705;BME280;6924;52.122;9.952;2023-08-08T11:58:25;99927.75;;;19.20;68.41
13705;BME280;6924;52.122;9.952;2023-08-08T12:00:52;99919.19;;;19.24;66.94
13705;BME280;6924;52.122;9.952;2023-08-08T12:03:20;99917.16;;;19.25;67.25
13705;BME280;6924;52.122;9.952;2023-08-08T12:05:46;99932.56;;;19.13;67.18
13705;BME280;6924;52.122;9.952;2023-08-08T12:08:17;99928.81;;;19.09;62.42
13705;BME280;6924;52.122;9.952;2023-08-08T12:10:47;99932.59;;;18.86;61.36
13705;BME280;6924;52.122;9.952;2023-08-08T12:13:19;99930.34;;;18.76;65.24
13705;BME280;6924;52.122;9.952;2023-08-08T12:15:46;99930.88;;;18.82;65.22
13705;BME280;6924;52.122;9.952;2023-08-08T12:18:16;99922.84;;;18.91;69.69
13705;BME280;6924;52.122;9.952;2023-08-08T12:20:42;99932.09;;;19.07;64.35
13705;BME280;6924;52.122;9.952;2023-08-08T12:23:09;99937.03;;;19.10;57.80
13705;BME280;6924;52.122;9.952;2023-08-08T12:25:36;99928.50;;;19.14;60.50
13705;BME280;6924;52.122;9.952;2023-08-08T12:28:03;99931.81;;;19.16;59.78
13705;BME280;6924;52.122;9.952;2023-08-08T12:30:31;99935.13;;;19.22;59.79
13705;BME280;6924;52.122;9.952;2023-08-08T12:32:57;99928.63;;;19.25;59.49
13705;BME280;6924;52.122;9.952;2023-08-08T12:35:24;99916.28;;;19.20;59.34
13705;BME280;6924;52.122;9.952;2023-08-08T12:37:51;99908.47;;;19.17;57.83
13705;BME280;6924;52.122;9.952;2023-08-08T12:40:18;99917.50;;;19.19;59.22
13705;BME280;6924;52.122;9.952;2023-08-08T12:42:44;99915.59;;;19.31;58.26
13705;BME280;6924;52.122;9.952;2023-08-08T12:45:11;99920.44;;;19.27;59.36
13705;BME280;6924;52.122;9.952;2023-08-08T12:47:39;99923.38;;;19.30;60.70
13705;BME280;6924;52.122;9.952;2023-08-08T12:50:06;99926.63;;;19.29;57.26
13705;BME280;6924;52.122;9.952;2023-08-08T12:52:33;99921.25;;;19.24;59.98
13705;BME280;6924;52.122;9.952;2023-08-08T12:54:59;99918.72;;;19.18;57.69
13705;BME280;6924;52.122;9.952;2023-08-08T12:57:26;99919.91;;;19.14;57.29